createdAt,value
2023-05-25T00:01:43.966Z,102365.22
2023-05-25T00:04:11.360Z,102361.78
2023-05-25T00:06:41.226Z,102352.38
2023-05-25T00:09:08.204Z,102353.97
2023-05-25T00:11:34.943Z,102357.44
2023-05-25T00:14:01.665Z,102366.03
2023-05-25T00:16:28.503Z,102352.84
2023-05-25T00:18:57.699Z,102363.50
2023-05-25T00:21:25.767Z,102348.09
2023-05-25T00:23:52.633Z,102363.22
2023-05-25T00:26:19.371Z,102369.41
2023-05-25T00:28:46.494Z,102367.38
2023-05-25T00:31:13.218Z,102375.13
2023-05-25T00:33:39.958Z,102384.41
2023-05-25T00:36:06.977Z,102380.81
2023-05-25T00:38:33.664Z,102372.22
2023-05-25T00:41:00.784Z,102366.84
2023-05-25T00:43:27.480Z,102373.72
2023-05-25T00:45:54.442Z,102377.38
2023-05-25T00:48:22.035Z,102377.94
2023-05-25T00:50:48.765Z,102382.59
2023-05-25T00:53:15.624Z,102372.59
2023-05-25T00:55:53.337Z,102383.78
2023-05-25T00:58:22.273Z,102392.47
2023-05-25T01:00:51.186Z,102395.16
2023-05-25T01:03:22.553Z,102383.09
2023-05-25T01:05:54.327Z,102388.34
2023-05-25T01:08:23.305Z,102400.56
2023-05-25T01:10:52.250Z,102394.88
2023-05-25T01:13:20.940Z,102389.63
2023-05-25T01:15:48.326Z,102387.53
2023-05-25T01:18:15.978Z,102400.72
2023-05-25T01:21:13.425Z,102398.13
2023-05-25T01:23:50.430Z,102402.53
2023-05-25T01:26:19.410Z,102400.91
2023-05-25T01:28:52.069Z,102394.78
2023-05-25T01:31:22.835Z,102399.63
2023-05-25T01:33:53.892Z,102410.13
2023-05-25T01:36:21.128Z,102395.06
2023-05-25T01:38:48.746Z,102393.97
2023-05-25T01:41:15.513Z,102397.41
2023-05-25T01:43:42.876Z,102399.16
2023-05-25T01:46:26.425Z,102369.78
2023-05-25T01:49:02.824Z,102411.03
2023-05-25T01:51:44.031Z,102415.47
2023-05-25T01:54:44.528Z,102403.00
2023-05-25T01:57:15.334Z,102401.19
2023-05-25T01:59:46.617Z,102401.91
2023-05-25T02:02:18.761Z,102402.97
2023-05-25T02:04:47.038Z,102413.66
2023-05-25T02:07:26.582Z,102419.09
2023-05-25T02:09:53.375Z,102418.34
2023-05-25T02:12:20.149Z,102420.78
2023-05-25T02:14:48.821Z,102421.50
2023-05-25T02:17:28.593Z,102420.66
2023-05-25T02:20:12.288Z,102419.81
2023-05-25T02:22:39.181Z,102400.28
2023-05-25T02:25:06.289Z,102421.69
2023-05-25T02:27:33.698Z,102410.28
2023-05-25T02:30:00.572Z,102413.66
2023-05-25T02:32:29.929Z,102418.88
2023-05-25T02:34:56.909Z,102422.28
2023-05-25T02:37:23.588Z,102420.66
2023-05-25T02:39:50.536Z,102426.66
2023-05-25T02:42:17.221Z,102417.88
2023-05-25T02:44:48.390Z,102411.03
2023-05-25T02:47:19.233Z,102431.31
2023-05-25T02:49:46.233Z,102430.50
2023-05-25T02:52:13.281Z,102425.94
2023-05-25T02:54:40.395Z,102424.13
2023-05-25T02:57:08.508Z,102425.84
2023-05-25T02:59:35.465Z,102427.66
2023-05-25T03:02:02.479Z,102420.78
2023-05-25T03:04:31.246Z,102432.25
2023-05-25T03:06:58.188Z,102421.22
2023-05-25T03:09:37.168Z,102431.69
2023-05-25T03:12:04.099Z,102423.84
2023-05-25T03:14:30.832Z,102414.31
2023-05-25T03:16:57.881Z,102418.72
2023-05-25T03:19:24.738Z,102418.78
2023-05-25T03:21:51.392Z,102426.69
2023-05-25T03:24:18.104Z,102420.50
2023-05-25T03:26:44.826Z,102440.56
2023-05-25T03:29:13.293Z,102433.56
2023-05-25T03:31:40.039Z,102429.13
2023-05-25T03:34:07.095Z,102429.00
2023-05-25T03:36:34.125Z,102429.81
2023-05-25T03:39:01.207Z,102438.47
2023-05-25T03:41:27.907Z,102428.00
2023-05-25T03:43:54.675Z,102434.22
2023-05-25T03:46:30.383Z,102431.59
2023-05-25T03:49:06.771Z,102434.31
2023-05-25T03:51:33.413Z,102431.88
2023-05-25T03:54:00.171Z,102427.66
2023-05-25T03:56:27.393Z,102431.81
2023-05-25T03:58:57.107Z,102434.31
2023-05-25T04:01:26.521Z,102429.00
2023-05-25T04:03:53.307Z,102424.59
2023-05-25T04:06:21.232Z,102422.72
2023-05-25T04:08:48.091Z,102427.03
2023-05-25T04:11:14.797Z,102429.81
2023-05-25T04:13:41.540Z,102430.66
2023-05-25T04:16:12.558Z,102415.66
2023-05-25T04:18:39.242Z,102435.53
2023-05-25T04:21:05.962Z,102440.13
2023-05-25T04:23:34.143Z,102435.09
2023-05-25T04:26:01.754Z,102429.06
2023-05-25T04:28:28.540Z,102440.84
2023-05-25T04:30:58.252Z,102445.19
2023-05-25T04:33:25.072Z,102438.88
2023-05-25T04:35:51.779Z,102428.91
2023-05-25T04:38:18.539Z,102438.63
2023-05-25T04:40:46.521Z,102446.97
2023-05-25T04:43:13.850Z,102454.88
2023-05-25T04:45:40.863Z,102466.00
2023-05-25T04:48:07.809Z,102481.28
2023-05-25T04:50:34.664Z,102475.38
2023-05-25T04:53:01.419Z,102483.41
2023-05-25T04:55:28.085Z,102482.56
2023-05-25T04:57:55.209Z,102475.38
2023-05-25T05:00:22.148Z,102478.56
2023-05-25T05:02:49.200Z,102471.19
2023-05-25T05:05:16.229Z,102471.13
2023-05-25T05:07:43.248Z,102467.59
2023-05-25T05:10:15.067Z,102470.25
2023-05-25T05:12:41.760Z,102479.34
2023-05-25T05:15:08.810Z,102483.94
2023-05-25T05:17:35.514Z,102477.03
2023-05-25T05:20:02.376Z,102479.72
2023-05-25T05:22:29.191Z,102465.84
2023-05-25T05:24:56.557Z,102490.13
2023-05-25T05:27:23.432Z,102487.59
2023-05-25T05:29:50.090Z,102488.16
2023-05-25T05:32:16.737Z,102478.97
2023-05-25T05:34:43.449Z,102488.44
2023-05-25T05:37:10.197Z,102479.72
2023-05-25T05:39:37.120Z,102474.22
2023-05-25T05:42:04.009Z,102475.09
2023-05-25T05:44:30.754Z,102482.75
2023-05-25T05:47:01.046Z,102485.50
2023-05-25T05:49:31.749Z,102480.88
2023-05-25T05:51:59.379Z,102491.06
2023-05-25T05:54:29.985Z,102496.13
2023-05-25T05:56:57.457Z,102500.06
2023-05-25T05:59:24.379Z,102495.81
2023-05-25T06:01:51.233Z,102499.72
2023-05-25T06:04:38.680Z,102495.47
2023-05-25T06:07:05.620Z,102498.91
2023-05-25T06:09:32.275Z,102502.81
2023-05-25T06:11:59.069Z,102494.03
2023-05-25T06:14:28.353Z,102491.78
2023-05-25T06:16:55.627Z,102494.63
2023-05-25T06:19:22.401Z,102495.44
2023-05-25T06:21:49.096Z,102497.72
2023-05-25T06:24:16.169Z,102503.75
2023-05-25T06:26:42.874Z,102503.22
2023-05-25T06:29:09.561Z,102503.09
2023-05-25T06:31:37.313Z,102505.38
2023-05-25T06:34:04.142Z,102501.19
2023-05-25T06:36:32.091Z,102507.84
2023-05-25T06:38:58.992Z,102509.44
2023-05-25T06:41:26.303Z,102516.84
2023-05-25T06:43:53.027Z,102497.78
2023-05-25T06:46:19.775Z,102500.88
2023-05-25T06:48:46.568Z,102513.09
2023-05-25T06:51:13.635Z,102513.94
2023-05-25T06:53:40.718Z,102510.88
2023-05-25T06:56:07.502Z,102516.91
2023-05-25T06:58:34.244Z,102513.38
2023-05-25T07:01:01.276Z,102506.91
2023-05-25T07:03:28.088Z,102507.44
2023-05-25T07:05:55.208Z,102511.53
2023-05-25T07:08:21.895Z,102514.63
2023-05-25T07:10:50.116Z,102521.97
2023-05-25T07:13:17.438Z,102528.66
2023-05-25T07:15:53.103Z,102535.22
2023-05-25T07:18:19.852Z,102526.09
2023-05-25T07:20:46.636Z,102520.72
2023-05-25T07:23:13.381Z,102517.81
2023-05-25T07:25:41.574Z,102517.66
2023-05-25T07:28:08.941Z,102519.91
2023-05-25T07:30:49.574Z,102522.56
2023-05-25T07:33:16.808Z,102520.09
2023-05-25T07:35:46.464Z,102527.75
2023-05-25T07:38:13.662Z,102505.19
2023-05-25T07:40:49.463Z,102534.41
2023-05-25T07:43:16.180Z,102530.16
2023-05-25T07:45:43.239Z,102533.41
2023-05-25T07:48:10.150Z,102535.66
2023-05-25T07:50:49.077Z,102524.69
2023-05-25T07:56:02.387Z,102503.50
2023-05-25T07:58:29.261Z,102516.84
2023-05-25T08:00:56.396Z,102518.72
2023-05-25T08:03:31.694Z,102533.72
2023-05-25T08:06:06.978Z,102526.66
2023-05-25T08:08:36.361Z,102527.41
2023-05-25T08:11:03.309Z,102531.38
2023-05-25T08:13:29.956Z,102524.25
2023-05-25T08:15:57.024Z,102520.28
2023-05-25T08:18:23.681Z,102520.22
2023-05-25T08:20:50.390Z,102521.25
2023-05-25T08:23:18.035Z,102528.28
2023-05-25T08:25:44.981Z,102528.31
2023-05-25T08:28:13.413Z,102522.59
2023-05-25T08:30:40.121Z,102527.88
2023-05-25T08:33:07.366Z,102519.94
2023-05-25T08:35:34.099Z,102531.50
2023-05-25T08:38:00.774Z,102531.22
2023-05-25T08:40:30.787Z,102537.41
2023-05-25T08:42:57.560Z,102531.81
2023-05-25T08:45:34.961Z,102523.66
2023-05-25T08:48:10.749Z,102534.63
2023-05-25T08:50:39.830Z,102520.88
2023-05-25T08:53:12.235Z,102535.22
2023-05-25T08:55:41.797Z,102533.47
2023-05-25T08:58:34.405Z,102536.28
2023-05-25T09:01:07.586Z,102527.56
2023-05-25T09:03:36.361Z,102522.41
2023-05-25T09:06:03.282Z,102528.72
2023-05-25T09:08:30.968Z,102526.25
2023-05-25T09:10:58.112Z,102525.94
2023-05-25T09:13:24.905Z,102519.50
2023-05-25T09:15:53.025Z,102516.19
2023-05-25T09:18:20.034Z,102517.06
2023-05-25T09:20:47.610Z,102521.63
2023-05-25T09:23:15.309Z,102523.00
2023-05-25T09:25:42.658Z,102523.50
2023-05-25T09:30:42.039Z,102521.84
2023-05-25T09:33:19.090Z,102526.84
2023-05-25T09:35:46.709Z,102511.75
2023-05-25T09:38:15.715Z,102515.97
2023-05-25T09:40:42.890Z,102508.34
2023-05-25T09:43:11.469Z,102514.28
2023-05-25T09:45:38.584Z,102506.06
2023-05-25T09:48:07.525Z,102518.84
2023-05-25T09:50:36.265Z,102511.09
2023-05-25T09:53:06.651Z,102502.88
2023-05-25T09:55:44.373Z,102513.72
2023-05-25T09:58:19.597Z,102508.66
2023-05-25T10:00:46.745Z,102503.94
2023-05-25T10:03:15.456Z,102511.66
2023-05-25T10:05:42.320Z,102521.38
2023-05-25T10:08:10.618Z,102524.31
2023-05-25T10:10:39.605Z,102511.84
2023-05-25T10:13:09.345Z,102511.94
2023-05-25T10:15:39.796Z,102510.41
2023-05-25T10:18:07.226Z,102518.88
2023-05-25T10:20:35.329Z,102510.94
2023-05-25T10:23:16.865Z,102496.75
2023-05-25T10:25:49.068Z,102515.22
2023-05-25T10:28:36.377Z,102506.19
2023-05-25T10:31:04.344Z,102508.50
2023-05-25T10:33:32.961Z,102513.00
2023-05-25T10:36:10.700Z,102521.31
2023-05-25T10:38:40.479Z,102501.59
2023-05-25T10:41:10.897Z,102511.75
2023-05-25T10:43:39.388Z,102505.06
2023-05-25T10:46:07.162Z,102512.16
2023-05-25T10:48:40.638Z,102512.50
2023-05-25T10:51:11.952Z,102517.13
2023-05-25T10:53:39.326Z,102499.41
2023-05-25T10:56:07.474Z,102477.53
2023-05-25T10:58:34.428Z,102494.75
2023-05-25T11:01:12.055Z,102500.56
2023-05-25T11:03:44.989Z,102499.31
2023-05-25T11:06:12.483Z,102495.31
2023-05-25T11:08:56.091Z,102501.91
2023-05-25T11:11:42.656Z,102497.00
2023-05-25T11:14:29.993Z,102496.31
2023-05-25T11:17:14.804Z,102495.03
2023-05-25T11:19:54.269Z,102497.69
2023-05-25T11:22:23.335Z,102491.91
2023-05-25T11:24:51.721Z,102488.84
2023-05-25T11:27:24.075Z,102480.69
2023-05-25T11:29:52.138Z,102487.91
2023-05-25T11:32:18.844Z,102479.72
2023-05-25T11:34:47.970Z,102485.88
2023-05-25T11:37:30.341Z,102489.34
2023-05-25T11:39:57.650Z,102484.38
2023-05-25T11:42:25.625Z,102477.59
2023-05-25T11:44:53.862Z,102484.25
2023-05-25T11:47:25.928Z,102477.00
2023-05-25T11:49:56.814Z,102479.00
2023-05-25T11:52:24.624Z,102472.63
2023-05-25T11:54:53.361Z,102481.44
2023-05-25T11:57:25.222Z,102484.97
2023-05-25T11:59:58.123Z,102476.91
2023-05-25T12:02:25.942Z,102477.91
2023-05-25T12:04:58.591Z,102484.13
2023-05-25T12:07:27.854Z,102477.34
2023-05-25T12:10:09.636Z,102474.16
2023-05-25T12:12:53.278Z,102474.94
2023-05-25T12:15:26.092Z,102476.63
2023-05-25T12:17:54.699Z,102485.25
2023-05-25T12:20:22.721Z,102481.09
2023-05-25T12:22:50.134Z,102468.56
2023-05-25T12:25:21.770Z,102478.88
2023-05-25T12:27:48.715Z,102475.72
2023-05-25T12:30:15.755Z,102484.69
2023-05-25T12:33:01.688Z,102480.81
2023-05-25T12:35:29.999Z,102474.59
2023-05-25T12:38:13.429Z,102474.78
2023-05-25T12:40:42.589Z,102483.75
2023-05-25T12:43:12.266Z,102463.28
2023-05-25T12:45:44.327Z,102480.63
2023-05-25T12:48:12.236Z,102484.28
2023-05-25T12:50:41.113Z,102493.88
2023-05-25T12:53:08.691Z,102481.47
2023-05-25T12:55:36.432Z,102486.97
2023-05-25T12:58:07.735Z,102495.06
2023-05-25T13:00:39.589Z,102497.22
2023-05-25T13:03:07.938Z,102494.63
2023-05-25T13:05:37.815Z,102495.03
2023-05-25T13:08:06.328Z,102488.28
2023-05-25T13:10:38.908Z,102492.78
2023-05-25T13:13:06.904Z,102490.50
2023-05-25T13:15:33.759Z,102477.19
2023-05-25T13:18:00.769Z,102453.88
2023-05-25T13:20:30.762Z,102475.09
2023-05-25T13:22:59.243Z,102481.91
2023-05-25T13:25:28.148Z,102484.81
2023-05-25T13:27:58.144Z,102469.13
2023-05-25T13:30:25.337Z,102468.56
2023-05-25T13:32:52.902Z,102477.13
2023-05-25T13:35:34.119Z,102486.88
2023-05-25T13:38:03.914Z,102486.88
2023-05-25T13:40:30.759Z,102466.97
2023-05-25T13:42:57.429Z,102472.59
2023-05-25T13:45:24.609Z,102475.47
2023-05-25T13:47:51.633Z,102475.19
2023-05-25T13:50:18.797Z,102479.44
2023-05-25T13:52:45.538Z,102484.09
2023-05-25T13:55:13.074Z,102479.59
2023-05-25T13:57:39.761Z,102466.81
2023-05-25T14:00:08.521Z,102470.75
2023-05-25T14:02:35.863Z,102468.38
2023-05-25T14:05:03.368Z,102442.72
2023-05-25T14:07:30.209Z,102472.47
2023-05-25T14:09:58.193Z,102471.25
2023-05-25T14:12:26.583Z,102475.94
2023-05-25T14:14:53.386Z,102465.00
2023-05-25T14:17:20.039Z,102464.50
2023-05-25T14:19:47.089Z,102469.88
2023-05-25T14:22:14.717Z,102477.56
2023-05-25T14:24:42.051Z,102476.22
2023-05-25T14:27:09.042Z,102480.84
2023-05-25T14:29:36.046Z,102483.72
2023-05-25T14:32:03.552Z,102475.91
2023-05-25T14:34:30.565Z,102474.72
2023-05-25T14:36:57.656Z,102480.94
2023-05-25T14:39:25.892Z,102477.28
2023-05-25T14:41:52.731Z,102466.91
2023-05-25T14:44:19.856Z,102478.69
2023-05-25T14:46:46.923Z,102476.28
2023-05-25T14:49:13.936Z,102470.34
2023-05-25T14:51:40.787Z,102454.72
2023-05-25T14:54:07.990Z,102461.44
2023-05-25T14:56:37.892Z,102453.72
2023-05-25T14:59:04.687Z,102442.09
2023-05-25T15:01:34.322Z,102458.34
2023-05-25T15:04:02.479Z,102472.94
2023-05-25T15:06:29.359Z,102465.34
2023-05-25T15:08:56.116Z,102467.66
2023-05-25T15:11:22.818Z,102462.25
2023-05-25T15:13:49.509Z,102457.38
2023-05-25T15:16:17.419Z,102458.59
2023-05-25T15:18:45.061Z,102449.47
2023-05-25T15:21:13.044Z,102466.28
2023-05-25T15:23:39.753Z,102454.66
2023-05-25T15:26:08.863Z,102463.28
2023-05-25T15:28:36.790Z,102458.22
2023-05-25T15:31:04.334Z,102447.00
2023-05-25T15:33:48.585Z,102443.69
2023-05-25T15:36:19.482Z,102446.41
2023-05-25T15:38:49.471Z,102446.47
2023-05-25T15:41:18.417Z,102439.50
2023-05-25T15:43:58.625Z,102447.09
2023-05-25T15:46:26.957Z,102449.59
2023-05-25T15:48:54.543Z,102438.69
2023-05-25T15:51:22.329Z,102435.28
2023-05-25T15:53:50.030Z,102451.50
2023-05-25T15:56:17.598Z,102441.81
2023-05-25T15:58:49.752Z,102441.88
2023-05-25T16:01:17.174Z,102427.81
2023-05-25T16:03:45.346Z,102443.09
2023-05-25T16:06:12.486Z,102447.03
2023-05-25T16:08:39.797Z,102442.69
2023-05-25T16:11:10.690Z,102442.44
2023-05-25T16:13:37.523Z,102432.59
2023-05-25T16:16:04.551Z,102424.03
2023-05-25T16:18:31.523Z,102447.75
2023-05-25T16:20:59.017Z,102442.34
2023-05-25T16:23:25.891Z,102444.91
2023-05-25T16:25:52.864Z,102421.38
2023-05-25T16:28:19.597Z,102445.38
2023-05-25T16:30:50.005Z,102449.88
2023-05-25T16:33:17.159Z,102446.44
2023-05-25T16:35:44.074Z,102448.72
2023-05-25T16:38:12.381Z,102460.13
2023-05-25T16:40:44.136Z,102449.72
2023-05-25T16:43:11.204Z,102439.63
2023-05-25T16:45:37.908Z,102448.53
2023-05-25T16:48:04.931Z,102453.41
2023-05-25T16:50:31.672Z,102453.63
2023-05-25T16:52:58.733Z,102461.66
2023-05-25T16:55:26.316Z,102474.00
2023-05-25T16:57:53.295Z,102481.22
2023-05-25T17:00:20.893Z,102482.25
2023-05-25T17:02:47.866Z,102477.00
2023-05-25T17:05:14.747Z,102467.88
2023-05-25T17:07:42.018Z,102482.66
2023-05-25T17:10:09.239Z,102475.94
2023-05-25T17:12:36.658Z,102468.31
2023-05-25T17:15:04.520Z,102478.13
2023-05-25T17:17:31.694Z,102485.16
2023-05-25T17:19:59.567Z,102484.75
2023-05-25T17:22:26.370Z,102483.38
2023-05-25T17:24:53.092Z,102488.56
2023-05-25T17:27:19.742Z,102492.13
2023-05-25T17:29:46.537Z,102482.22
2023-05-25T17:32:13.357Z,102492.19
2023-05-25T17:34:40.093Z,102492.56
2023-05-25T17:37:07.080Z,102490.16
2023-05-25T17:39:33.768Z,102495.44
2023-05-25T17:42:01.750Z,102499.72
2023-05-25T17:44:28.439Z,102490.03
2023-05-25T17:46:55.104Z,102487.44
2023-05-25T17:49:21.882Z,102500.06
2023-05-25T17:51:48.555Z,102495.53
2023-05-25T17:54:18.489Z,102506.09
2023-05-25T17:56:45.965Z,102496.31
2023-05-25T17:59:12.796Z,102513.31
2023-05-25T18:01:40.834Z,102500.47
2023-05-25T18:04:07.730Z,102501.22
2023-05-25T18:06:34.604Z,102505.94
2023-05-25T18:09:01.372Z,102508.00
2023-05-25T18:11:29.290Z,102501.69
2023-05-25T18:13:55.972Z,102502.94
2023-05-25T18:16:22.671Z,102511.56
2023-05-25T18:18:49.320Z,102509.78
2023-05-25T18:21:16.151Z,102509.50
2023-05-25T18:23:42.829Z,102497.50
2023-05-25T18:26:09.508Z,102508.06
2023-05-25T18:28:36.245Z,102501.56
2023-05-25T18:31:02.960Z,102512.47
2023-05-25T18:33:29.930Z,102493.28
2023-05-25T18:35:56.599Z,102499.00
2023-05-25T18:38:23.284Z,102500.66
2023-05-25T18:40:49.948Z,102501.88
2023-05-25T18:43:16.665Z,102506.59
2023-05-25T18:45:43.917Z,102490.38
2023-05-25T18:48:11.021Z,102506.44
2023-05-25T18:50:39.393Z,102500.91
2023-05-25T18:53:07.750Z,102468.19
2023-05-25T18:55:34.556Z,102496.59
2023-05-25T18:58:01.528Z,102506.78
2023-05-25T19:00:28.196Z,102499.69
2023-05-25T19:02:54.998Z,102502.91
2023-05-25T19:05:22.570Z,102500.84
2023-05-25T19:10:19.140Z,102502.16
2023-05-25T19:12:45.811Z,102494.22
2023-05-25T19:15:13.388Z,102493.91
2023-05-25T19:17:40.176Z,102471.59
2023-05-25T19:20:07.685Z,102485.63
2023-05-25T19:22:35.968Z,102491.41
2023-05-25T19:25:02.722Z,102492.94
2023-05-25T19:27:29.833Z,102479.66
2023-05-25T19:29:56.515Z,102486.47
2023-05-25T19:32:23.325Z,102492.91
2023-05-25T19:34:50.045Z,102490.06
2023-05-25T19:37:16.830Z,102500.63
2023-05-25T19:39:43.564Z,102483.56
2023-05-25T19:42:10.470Z,102479.91
2023-05-25T19:44:37.260Z,102487.66
2023-05-25T19:47:04.121Z,102485.59
2023-05-25T19:49:30.866Z,102487.50
2023-05-25T19:51:57.618Z,102488.09
2023-05-25T19:54:24.304Z,102490.38
2023-05-25T19:56:50.971Z,102488.41
2023-05-25T19:59:17.745Z,102500.19
2023-05-25T20:01:44.472Z,102508.72
2023-05-25T20:04:11.404Z,102504.75
2023-05-25T20:06:38.797Z,102494.25
2023-05-25T20:09:06.108Z,102491.25
2023-05-25T20:11:32.846Z,102506.88
2023-05-25T20:13:59.483Z,102506.66
2023-05-25T20:16:26.631Z,102513.69
2023-05-25T20:18:53.391Z,102514.19
2023-05-25T20:21:20.893Z,102516.53
2023-05-25T20:23:47.678Z,102498.13
2023-05-25T20:26:14.359Z,102511.34
2023-05-25T20:28:41.182Z,102522.16
2023-05-25T20:31:08.605Z,102507.16
2023-05-25T20:33:35.350Z,102529.75
2023-05-25T20:36:02.051Z,102535.25
2023-05-25T20:38:28.958Z,102533.09
2023-05-25T20:40:55.690Z,102540.72
2023-05-25T20:43:22.424Z,102541.53
2023-05-25T20:45:49.292Z,102524.44
2023-05-25T20:48:16.095Z,102533.31
2023-05-25T20:50:42.841Z,102547.81
2023-05-25T20:53:10.813Z,102557.41
2023-05-25T20:55:37.551Z,102551.97
2023-05-25T20:58:04.240Z,102548.16
2023-05-25T21:00:30.973Z,102546.47
2023-05-25T21:02:57.671Z,102553.84
2023-05-25T21:05:24.443Z,102545.88
2023-05-25T21:07:51.927Z,102509.63
2023-05-25T21:10:18.752Z,102565.16
2023-05-25T21:12:45.654Z,102565.47
2023-05-25T21:15:12.377Z,102566.50
2023-05-25T21:17:39.086Z,102568.63
2023-05-25T21:20:06.271Z,102562.75
2023-05-25T21:22:33.003Z,102570.72
2023-05-25T21:24:59.680Z,102569.84
2023-05-25T21:27:26.324Z,102570.13
2023-05-25T21:29:54.708Z,102574.06
2023-05-25T21:32:21.524Z,102581.00
2023-05-25T21:34:48.293Z,102581.88
2023-05-25T21:37:15.129Z,102581.28
2023-05-25T21:39:41.883Z,102584.69
2023-05-25T21:42:09.871Z,102587.31
2023-05-25T21:44:36.630Z,102588.34
2023-05-25T21:47:05.103Z,102578.91
2023-05-25T21:49:31.897Z,102599.81
2023-05-25T21:51:58.603Z,102605.44
2023-05-25T21:54:25.328Z,102606.59
2023-05-25T21:56:52.061Z,102595.72
2023-05-25T21:59:18.707Z,102602.22
2023-05-25T22:01:45.738Z,102613.69
2023-05-25T22:04:12.425Z,102608.91
2023-05-25T22:06:39.118Z,102616.81
2023-05-25T22:09:05.988Z,102589.94
2023-05-25T22:11:33.979Z,102605.28
2023-05-25T22:14:03.088Z,102610.97
2023-05-25T22:16:29.812Z,102617.03
2023-05-25T22:18:56.560Z,102612.72
2023-05-25T22:21:23.335Z,102618.66
2023-05-25T22:23:50.023Z,102616.84
2023-05-25T22:26:16.847Z,102618.06
2023-05-25T22:28:43.525Z,102618.75
2023-05-25T22:31:11.575Z,102636.44
2023-05-25T22:33:38.449Z,102627.75
2023-05-25T22:36:05.236Z,102628.84
2023-05-25T22:38:32.010Z,102632.09
2023-05-25T22:40:58.694Z,102631.84
2023-05-25T22:43:27.032Z,102641.72
2023-05-25T22:45:54.205Z,102630.25
2023-05-25T22:48:21.598Z,102631.06
2023-05-25T22:50:48.349Z,102645.75
2023-05-25T22:53:15.067Z,102633.84
2023-05-25T22:55:41.739Z,102649.41
2023-05-25T22:58:08.503Z,102649.69
2023-05-25T23:00:35.179Z,102655.72
2023-05-25T23:03:04.172Z,102656.66
2023-05-25T23:05:31.327Z,102647.00
2023-05-25T23:07:59.579Z,102660.00
2023-05-25T23:10:26.353Z,102660.00
2023-05-25T23:12:54.751Z,102651.22
2023-05-25T23:15:22.473Z,102660.00
2023-05-25T23:17:49.429Z,102660.06
2023-05-25T23:20:16.394Z,102650.50
2023-05-25T23:22:43.219Z,102645.56
2023-05-25T23:25:10.070Z,102661.22
2023-05-25T23:27:36.734Z,102652.44
2023-05-25T23:30:04.077Z,102657.50
2023-05-25T23:32:30.851Z,102643.69
2023-05-25T23:34:57.654Z,102661.88
2023-05-25T23:37:24.331Z,102653.25
2023-05-25T23:39:51.304Z,102645.50
2023-05-25T23:42:18.692Z,102653.28
2023-05-25T23:44:46.588Z,102656.97
2023-05-25T23:47:13.547Z,102647.38
2023-05-25T23:49:40.248Z,102650.22
2023-05-25T23:52:06.945Z,102657.09
2023-05-25T23:54:33.613Z,102654.44
2023-05-25T23:57:00.350Z,102657.84
2023-05-25T23:59:27.025Z,102652.72
